WetterOnline ( https://www.wetteronline.de )

Wetter aktuell Rheinstetten

Aktuelles Wetter: Rheinstetten (116m)

6-stündlich | Neueste Meldungen
Ortszeit Temperatur Wetter
Sa, 20.04. 20:00 4.8° C bewölkt
Sa, 20.04. 14:00 7.9° C bedeckt
Sa, 20.04. 8:00 5.6° C bedeckt
Sa, 20.04. 2:00 6.1° C bedeckt
Fr, 19.04. 20:00 8.0° C bewölkt
Fr, 19.04. 14:00 6.2° C leichter Regen
Fr, 19.04. 8:00 6.1° C leichter Regen
Fr, 19.04. 2:00 5.5° C bewölkt
Ortszeit Temperatur Wetter
Sa, 20.04. 21:30 4.9° C bewölkt
Sa, 20.04. 21:20 4.9° C bewölkt
Sa, 20.04. 21:10 4.8° C bewölkt
Sa, 20.04. 21:00 5.0° C bedeckt
Sa, 20.04. 20:50 5.0° C Sprühregen
Sa, 20.04. 20:40 5.2° C leichter Regen
Sa, 20.04. 20:30 5.0° C bedeckt
Sa, 20.04. 20:00 4.8° C bewölkt
Sa, 20.04. 19:30 4.6° C bedeckt
Sa, 20.04. 19:00 4.2° C Regen
Sa, 20.04. 18:30 8.1° C wolkig
Ortszeit Relative Feuchte Sichtweite
Sa, 20.04. 20:00 92% >70 km
Sa, 20.04. 14:00 70% 55 km
Sa, 20.04. 8:00 87% 30 km
Sa, 20.04. 2:00 86% 50 km
Fr, 19.04. 20:00 88% 55 km
Fr, 19.04. 14:00 89% 16 km
Fr, 19.04. 8:00 84% 16 km
Fr, 19.04. 2:00 89% 45 km
Ortszeit Relative Feuchte Sichtweite
Sa, 20.04. 21:30 91% 65 km
Sa, 20.04. 21:20 91% -
Sa, 20.04. 21:10 90% -
Sa, 20.04. 21:00 91% 65 km
Sa, 20.04. 20:50 91% -
Sa, 20.04. 20:40 93% -
Sa, 20.04. 20:30 93% >70 km
Sa, 20.04. 20:00 92% >70 km
Sa, 20.04. 19:30 93% >70 km
Sa, 20.04. 19:00 93% 7 km
Sa, 20.04. 18:30 80% 60 km
Ortszeit Niederschlagsmenge Niederschlagsart
Sa, 20.04. 20:00 8 l/m2 in 12 Std. Regen
Sa, 20.04. 14:00 0.1 l/m2 in 6 Std. Regen
Sa, 20.04. 8:00 0.7 l/m2 in 12 Std. Regen
Sa, 20.04. 2:00 0.7 l/m2 in 6 Std. Regen
Fr, 19.04. 20:00 8 l/m2 in 12 Std. Regen
Fr, 19.04. 14:00 3 l/m2 in 6 Std. Regen
Fr, 19.04. 8:00 0.1 l/m2 in 12 Std. Regen
Fr, 19.04. 2:00 0.0 l/m2 in 6 Std. -
Ortszeit Niederschlagsmenge Niederschlagsart
Sa, 20.04. 21:30 0.0 l/m2 in 30 Min -
Sa, 20.04. 21:20 keine Meldung -
Sa, 20.04. 21:10 keine Meldung -
Sa, 20.04. 21:00 0.1 l/m2 in 1 Std. Regen
Sa, 20.04. 20:50 keine Meldung -
Sa, 20.04. 20:40 keine Meldung -
Sa, 20.04. 20:30 0.0 l/m2 in 30 Min -
Sa, 20.04. 20:00 0.6 l/m2 in 1 Std. Regen
Sa, 20.04. 19:30 0.6 l/m2 in 30 Min Schneeregen
Sa, 20.04. 19:00 4.7 l/m2 in 1 Std. Regen, Niederschlag
Sa, 20.04. 18:30 0.0 l/m2 in 30 Min -
Ortszeit Stärke Spitze Richtung
km/h Bft. km/h Grad Sektor
Sa, 20.04. 20:00 9 2 37 210° SW
Sa, 20.04. 14:00 14 3 29 310° NW
Sa, 20.04. 8:00 11 2 22 220° SW
Sa, 20.04. 2:00 7 2 40 250° W
Fr, 19.04. 20:00 26 4 52 220° SW
Fr, 19.04. 14:00 36 5 58 220° SW
Fr, 19.04. 8:00 22 4 32 250° W
Fr, 19.04. 2:00 13 3 20 220° SW
Ortszeit Stärke Spitze Richtung
km/h Bft. km/h Grad Sektor
Sa, 20.04. 21:30 4 1 14 200° S
Sa, 20.04. 21:20 4 1 - 200° S
Sa, 20.04. 21:10 6 1 - 170° S
Sa, 20.04. 21:00 13 3 20 200° S
Sa, 20.04. 20:50 13 3 - 200° S
Sa, 20.04. 20:40 17 3 - 210° SW
Sa, 20.04. 20:30 11 2 15 240° SW
Sa, 20.04. 20:00 9 2 19 210° SW
Sa, 20.04. 19:30 11 2 18 150° SO
Sa, 20.04. 19:00 9 2 37 70° O
Sa, 20.04. 18:30 11 2 18 200° S
Ortszeit Untergrenze Bedeckung Gattung
total tief tief mittel hoch
Sa, 20.04. 20:00 1320 m 8/8 7/8 - - -
Sa, 20.04. 14:00 1440 m 8/8 8/8 - - -
Sa, 20.04. 8:00 1200 m 8/8 8/8 - - -
Sa, 20.04. 2:00 1020 m 8/8 8/8 - - -
Fr, 19.04. 20:00 990 m 8/8 6/8 - - -
Fr, 19.04. 14:00 390 m 4/8 4/8 - - -
Fr, 19.04. 8:00 840 m 8/8 8/8 - - -
Fr, 19.04. 2:00 2100 m 8/8 6/8 - - -
Ortszeit Bedeckungsgrad in Achtel und Wolkenuntergrenze
Sa, 20.04. 21:30 4(1350m) 8(3000m) 8(3600m)
Sa, 20.04. 21:20 4(1350m) 8(3000m) 8(3600m)
Sa, 20.04. 21:10 7
Sa, 20.04. 21:00 1(840m) 4(1500m) 8(2400m)
Sa, 20.04. 20:50 1(840m) 4(1500m) 8(2400m)
Sa, 20.04. 20:40 8
Sa, 20.04. 20:30 4(900m) 8(2100m) 8(3600m)
Sa, 20.04. 20:00 2(1320m) 7(2700m) 8(4200m)
Sa, 20.04. 19:30 1(690m) 7(1410m) 8(2400m)
Sa, 20.04. 19:00 3(630m) 6(780m) 7(1170m)
Sa, 20.04. 18:30 3(1800m) 8(4200m) 8(4800m)
Ortszeit Luftdruck NN (hPa) Tendenz (hPa in 3 Std.)
Sa, 20.04. 20:00 1022 + 0,6
Sa, 20.04. 14:00 1021 + 0,9
Sa, 20.04. 8:00 1018 + 2,3
Sa, 20.04. 2:00 1015 + 1,5
Fr, 19.04. 20:00 1011 0,0
Fr, 19.04. 14:00 1013 - 2,3
Fr, 19.04. 8:00 1018 - 1,3
Fr, 19.04. 2:00 1021 - 0,4
Ortszeit Luftdruck NN (hPa) Tendenz (hPa in 3 Std.)
Sa, 20.04. 21:30 1023 + 0,9
Sa, 20.04. 21:20 1023 keine Meldung
Sa, 20.04. 21:10 1023 keine Meldung
Sa, 20.04. 21:00 1022 + 0,7
Sa, 20.04. 20:50 1022 keine Meldung
Sa, 20.04. 20:40 1022 keine Meldung
Sa, 20.04. 20:30 1023 + 0,8
Sa, 20.04. 20:00 1022 + 0,6
Sa, 20.04. 19:30 1022 + 0,2
Sa, 20.04. 19:00 1023 + 0,5
Sa, 20.04. 18:30 1022 + 0,2
Ortszeit Schneehöhe (cm)
Sa, 20.04. 20:00 0
Sa, 20.04. 14:00 0
Sa, 20.04. 8:00 0
Sa, 20.04. 2:00 0
Fr, 19.04. 20:00 0
Fr, 19.04. 14:00 0
Fr, 19.04. 8:00 0
Fr, 19.04. 2:00 0
Ortszeit Schneehöhe (cm)
Sa, 20.04. 21:30 0
Sa, 20.04. 21:20 0
Sa, 20.04. 21:10 -
Sa, 20.04. 21:00 0
Sa, 20.04. 20:50 0
Sa, 20.04. 20:40 -
Sa, 20.04. 20:30 0
Sa, 20.04. 20:00 0
Sa, 20.04. 19:30 0
Sa, 20.04. 19:00 0
Sa, 20.04. 18:30 0
Link zu dieser Seite / Seite empfehlen

Das Wetter in ...